sensor_id;sensor_type;location;lat;lon;timestamp;P1;durP1;ratioP1;P2;durP2;ratioP2
2544;SDS011;36212;48.838;9.142;2023-05-18T00:00:14;9.50;;;8.05;;
2544;SDS011;36212;48.838;9.142;2023-05-18T00:02:48;8.02;;;7.22;;
2544;SDS011;36212;48.838;9.142;2023-05-18T00:05:20;9.93;;;7.00;;
2544;SDS011;36212;48.838;9.142;2023-05-18T00:07:53;11.77;;;8.65;;
2544;SDS011;36212;48.838;9.142;2023-05-18T00:10:25;9.63;;;8.20;;
2544;SDS011;36212;48.838;9.142;2023-05-18T00:12:58;9.45;;;8.43;;
2544;SDS011;36212;48.838;9.142;2023-05-18T00:15:30;10.77;;;9.38;;
2544;SDS011;36212;48.838;9.142;2023-05-18T00:18:03;9.07;;;8.15;;
2544;SDS011;36212;48.838;9.142;2023-05-18T00:20:36;9.18;;;8.20;;
2544;SDS011;36212;48.838;9.142;2023-05-18T00:23:08;10.13;;;8.63;;
2544;SDS011;36212;48.838;9.142;2023-05-18T00:25:47;10.38;;;9.10;;
2544;SDS011;36212;48.838;9.142;2023-05-18T00:28:19;10.00;;;7.85;;
2544;SDS011;36212;48.838;9.142;2023-05-18T00:30:51;8.90;;;8.00;;
2544;SDS011;36212;48.838;9.142;2023-05-18T00:33:25;9.23;;;8.27;;
2544;SDS011;36212;48.838;9.142;2023-05-18T00:35:57;9.75;;;8.32;;
2544;SDS011;36212;48.838;9.142;2023-05-18T00:38:29;11.00;;;8.27;;
2544;SDS011;36212;48.838;9.142;2023-05-18T00:41:02;9.25;;;8.35;;
2544;SDS011;36212;48.838;9.142;2023-05-18T00:43:34;8.77;;;7.45;;
2544;SDS011;36212;48.838;9.142;2023-05-18T00:46:09;10.02;;;8.15;;
2544;SDS011;36212;48.838;9.142;2023-05-18T00:48:42;8.90;;;8.05;;
2544;SDS011;36212;48.838;9.142;2023-05-18T00:51:16;8.98;;;7.80;;
2544;SDS011;36212;48.838;9.142;2023-05-18T00:53:52;8.88;;;7.55;;
2544;SDS011;36212;48.838;9.142;2023-05-18T00:56:26;8.23;;;7.53;;
2544;SDS011;36212;48.838;9.142;2023-05-18T00:59:03;9.40;;;8.50;;
2544;SDS011;36212;48.838;9.142;2023-05-18T01:01:36;8.75;;;7.90;;
2544;SDS011;36212;48.838;9.142;2023-05-18T01:04:15;8.18;;;7.38;;
2544;SDS011;36212;48.838;9.142;2023-05-18T01:06:50;8.10;;;7.30;;
2544;SDS011;36212;48.838;9.142;2023-05-18T01:09:27;8.05;;;7.25;;
2544;SDS011;36212;48.838;9.142;2023-05-18T01:17:52;8.70;;;7.88;;
2544;SDS011;36212;48.838;9.142;2023-05-18T01:24:15;11.35;;;7.90;;
2544;SDS011;36212;48.838;9.142;2023-05-18T01:27:17;12.32;;;8.00;;
2544;SDS011;36212;48.838;9.142;2023-05-18T01:29:53;9.27;;;7.25;;
2544;SDS011;36212;48.838;9.142;2023-05-18T01:32:27;7.93;;;7.15;;
2544;SDS011;36212;48.838;9.142;2023-05-18T01:34:59;8.20;;;7.40;;
2544;SDS011;36212;48.838;9.142;2023-05-18T01:37:32;9.05;;;7.22;;
2544;SDS011;36212;48.838;9.142;2023-05-18T01:40:04;9.52;;;7.18;;
2544;SDS011;36212;48.838;9.142;2023-05-18T01:42:40;7.90;;;7.10;;
2544;SDS011;36212;48.838;9.142;2023-05-18T01:45:21;7.95;;;7.25;;
2544;SDS011;36212;48.838;9.142;2023-05-18T01:47:58;8.80;;;7.90;;
2544;SDS011;36212;48.838;9.142;2023-05-18T01:50:34;8.48;;;7.53;;
2544;SDS011;36212;48.838;9.142;2023-05-18T01:53:17;8.68;;;7.78;;
2544;SDS011;36212;48.838;9.142;2023-05-18T01:56:00;9.30;;;8.30;;
2544;SDS011;36212;48.838;9.142;2023-05-18T01:58:39;8.43;;;7.53;;
2544;SDS011;36212;48.838;9.142;2023-05-18T02:01:13;8.73;;;7.82;;
2544;SDS011;36212;48.838;9.142;2023-05-18T02:03:52;9.15;;;8.18;;
2544;SDS011;36212;48.838;9.142;2023-05-18T02:06:25;11.10;;;8.55;;
2544;SDS011;36212;48.838;9.142;2023-05-18T02:08:57;8.85;;;7.57;;
2544;SDS011;36212;48.838;9.142;2023-05-18T02:11:29;10.90;;;8.40;;
2544;SDS011;36212;48.838;9.142;2023-05-18T02:14:02;13.07;;;8.00;;
2544;SDS011;36212;48.838;9.142;2023-05-18T02:16:34;9.32;;;8.43;;
2544;SDS011;36212;48.838;9.142;2023-05-18T02:19:06;8.27;;;7.53;;
2544;SDS011;36212;48.838;9.142;2023-05-18T02:21:38;9.50;;;8.60;;
2544;SDS011;36212;48.838;9.142;2023-05-18T02:24:12;10.70;;;8.40;;
2544;SDS011;36212;48.838;9.142;2023-05-18T02:26:44;8.25;;;7.45;;
2544;SDS011;36212;48.838;9.142;2023-05-18T02:29:17;8.70;;;7.80;;
2544;SDS011;36212;48.838;9.142;2023-05-18T02:31:49;9.32;;;7.88;;
2544;SDS011;36212;48.838;9.142;2023-05-18T02:34:21;8.65;;;7.30;;
2544;SDS011;36212;48.838;9.142;2023-05-18T02:36:56;9.00;;;8.10;;
2544;SDS011;36212;48.838;9.142;2023-05-18T02:39:33;11.65;;;7.93;;
2544;SDS011;36212;48.838;9.142;2023-05-18T02:42:06;9.05;;;8.15;;
2544;SDS011;36212;48.838;9.142;2023-05-18T02:44:38;10.27;;;8.65;;
2544;SDS011;36212;48.838;9.142;2023-05-18T02:47:11;8.60;;;7.70;;
2544;SDS011;36212;48.838;9.142;2023-05-18T02:49:43;9.23;;;8.35;;
2544;SDS011;36212;48.838;9.142;2023-05-18T02:52:15;8.88;;;7.97;;
2544;SDS011;36212;48.838;9.142;2023-05-18T02:54:47;11.10;;;7.55;;
2544;SDS011;36212;48.838;9.142;2023-05-18T02:57:20;7.88;;;7.15;;
2544;SDS011;36212;48.838;9.142;2023-05-18T02:59:52;8.05;;;7.45;;
2544;SDS011;36212;48.838;9.142;2023-05-18T03:02:24;9.65;;;8.18;;
2544;SDS011;36212;48.838;9.142;2023-05-18T03:04:59;8.55;;;7.78;;
2544;SDS011;36212;48.838;9.142;2023-05-18T03:07:31;9.32;;;8.43;;
2544;SDS011;36212;48.838;9.142;2023-05-18T03:10:03;9.02;;;8.23;;
2544;SDS011;36212;48.838;9.142;2023-05-18T03:12:38;10.32;;;9.32;;
2544;SDS011;36212;48.838;9.142;2023-05-18T03:15:10;9.80;;;8.20;;
2544;SDS011;36212;48.838;9.142;2023-05-18T03:17:45;11.88;;;7.68;;
2544;SDS011;36212;48.838;9.142;2023-05-18T03:20:18;8.48;;;7.10;;
2544;SDS011;36212;48.838;9.142;2023-05-18T03:22:52;8.32;;;7.50;;
2544;SDS011;36212;48.838;9.142;2023-05-18T03:25:24;9.25;;;8.32;;
2544;SDS011;36212;48.838;9.142;2023-05-18T03:27:57;8.25;;;7.55;;
2544;SDS011;36212;48.838;9.142;2023-05-18T03:30:33;8.93;;;8.02;;
2544;SDS011;36212;48.838;9.142;2023-05-18T03:33:05;12.20;;;7.88;;
2544;SDS011;36212;48.838;9.142;2023-05-18T03:35:37;8.65;;;7.82;;
2544;SDS011;36212;48.838;9.142;2023-05-18T03:38:12;9.50;;;8.60;;
2544;SDS011;36212;48.838;9.142;2023-05-18T03:40:44;8.98;;;8.07;;
2544;SDS011;36212;48.838;9.142;2023-05-18T03:43:16;8.68;;;7.85;;
2544;SDS011;36212;48.838;9.142;2023-05-18T03:45:48;9.80;;;7.25;;
2544;SDS011;36212;48.838;9.142;2023-05-18T03:48:21;7.40;;;6.78;;
2544;SDS011;36212;48.838;9.142;2023-05-18T03:50:55;7.70;;;6.95;;
2544;SDS011;36212;48.838;9.142;2023-05-18T03:53:28;10.20;;;8.05;;
2544;SDS011;36212;48.838;9.142;2023-05-18T03:56:00;7.95;;;7.18;;
2544;SDS011;36212;48.838;9.142;2023-05-18T03:58:32;7.28;;;6.68;;
2544;SDS011;36212;48.838;9.142;2023-05-18T04:01:04;9.38;;;8.38;;
2544;SDS011;36212;48.838;9.142;2023-05-18T04:03:37;8.35;;;7.60;;
2544;SDS011;36212;48.838;9.142;2023-05-18T04:06:11;10.45;;;8.02;;
2544;SDS011;36212;48.838;9.142;2023-05-18T04:08:43;10.35;;;8.05;;
2544;SDS011;36212;48.838;9.142;2023-05-18T04:11:16;11.82;;;7.85;;
2544;SDS011;36212;48.838;9.142;2023-05-18T04:13:48;7.90;;;7.20;;
2544;SDS011;36212;48.838;9.142;2023-05-18T04:16:21;8.30;;;7.50;;
2544;SDS011;36212;48.838;9.142;2023-05-18T04:18:53;9.20;;;8.30;;
2544;SDS011;36212;48.838;9.142;2023-05-18T04:21:25;11.27;;;7.38;;
2544;SDS011;36212;48.838;9.142;2023-05-18T04:24:04;9.57;;;7.65;;
2544;SDS011;36212;48.838;9.142;2023-05-18T04:26:38;9.27;;;8.32;;
2544;SDS011;36212;48.838;9.142;2023-05-18T04:29:11;10.02;;;7.97;;
2544;SDS011;36212;48.838;9.142;2023-05-18T04:31:44;8.93;;;8.05;;
2544;SDS011;36212;48.838;9.142;2023-05-18T04:34:20;9.10;;;7.80;;
2544;SDS011;36212;48.838;9.142;2023-05-18T04:36:53;8.60;;;7.80;;
2544;SDS011;36212;48.838;9.142;2023-05-18T04:39:27;7.80;;;7.03;;
2544;SDS011;36212;48.838;9.142;2023-05-18T04:42:01;8.73;;;7.93;;
2544;SDS011;36212;48.838;9.142;2023-05-18T04:44:35;8.68;;;7.65;;
2544;SDS011;36212;48.838;9.142;2023-05-18T04:47:09;10.13;;;7.90;;
2544;SDS011;36212;48.838;9.142;2023-05-18T04:49:41;7.43;;;6.72;;
2544;SDS011;36212;48.838;9.142;2023-05-18T04:52:14;9.05;;;8.15;;
2544;SDS011;36212;48.838;9.142;2023-05-18T04:54:46;7.32;;;6.65;;
2544;SDS011;36212;48.838;9.142;2023-05-18T04:57:18;8.70;;;7.78;;
2544;SDS011;36212;48.838;9.142;2023-05-18T04:59:51;8.20;;;7.20;;
2544;SDS011;36212;48.838;9.142;2023-05-18T05:02:23;9.30;;;8.07;;
2544;SDS011;36212;48.838;9.142;2023-05-18T05:04:56;8.45;;;7.35;;
2544;SDS011;36212;48.838;9.142;2023-05-18T05:07:28;9.93;;;7.60;;
2544;SDS011;36212;48.838;9.142;2023-05-18T05:10:00;11.05;;;8.98;;
2544;SDS011;36212;48.838;9.142;2023-05-18T05:12:35;9.10;;;7.95;;
2544;SDS011;36212;48.838;9.142;2023-05-18T05:15:10;10.82;;;9.05;;
2544;SDS011;36212;48.838;9.142;2023-05-18T05:17:42;9.20;;;8.40;;
2544;SDS011;36212;48.838;9.142;2023-05-18T05:20:16;8.68;;;7.97;;
2544;SDS011;36212;48.838;9.142;2023-05-18T05:22:48;9.18;;;8.27;;
2544;SDS011;36212;48.838;9.142;2023-05-18T05:25:20;9.20;;;8.25;;
2544;SDS011;36212;48.838;9.142;2023-05-18T05:27:53;10.38;;;8.73;;
2544;SDS011;36212;48.838;9.142;2023-05-18T05:30:25;10.13;;;8.88;;
2544;SDS011;36212;48.838;9.142;2023-05-18T05:32:57;10.20;;;9.10;;
2544;SDS011;36212;48.838;9.142;2023-05-18T05:35:29;9.80;;;8.80;;
2544;SDS011;36212;48.838;9.142;2023-05-18T05:38:04;11.00;;;9.85;;
2544;SDS011;36212;48.838;9.142;2023-05-18T05:40:37;9.80;;;8.88;;
2544;SDS011;36212;48.838;9.142;2023-05-18T05:43:09;8.90;;;8.00;;
2544;SDS011;36212;48.838;9.142;2023-05-18T05:45:42;10.10;;;6.85;;
2544;SDS011;36212;48.838;9.142;2023-05-18T05:48:14;10.93;;;7.47;;
2544;SDS011;36212;48.838;9.142;2023-05-18T05:50:46;7.57;;;6.63;;
2544;SDS011;36212;48.838;9.142;2023-05-18T05:53:19;8.52;;;6.43;;
2544;SDS011;36212;48.838;9.142;2023-05-18T05:55:52;7.20;;;6.57;;
2544;SDS011;36212;48.838;9.142;2023-05-18T05:58:24;7.18;;;6.40;;
2544;SDS011;36212;48.838;9.142;2023-05-18T06:00:56;6.78;;;6.13;;
2544;SDS011;36212;48.838;9.142;2023-05-18T06:03:28;6.85;;;6.15;;
2544;SDS011;36212;48.838;9.142;2023-05-18T06:06:04;13.80;;;5.85;;
2544;SDS011;36212;48.838;9.142;2023-05-18T06:08:37;5.65;;;5.05;;
2544;SDS011;36212;48.838;9.142;2023-05-18T06:11:09;6.68;;;5.47;;
2544;SDS011;36212;48.838;9.142;2023-05-18T06:13:42;7.00;;;4.63;;
2544;SDS011;36212;48.838;9.142;2023-05-18T06:16:14;4.50;;;4.10;;
2544;SDS011;36212;48.838;9.142;2023-05-18T06:18:46;6.10;;;4.25;;
2544;SDS011;36212;48.838;9.142;2023-05-18T06:21:20;5.18;;;4.00;;
2544;SDS011;36212;48.838;9.142;2023-05-18T06:23:52;5.75;;;4.03;;
2544;SDS011;36212;48.838;9.142;2023-05-18T06:26:25;5.22;;;4.07;;
2544;SDS011;36212;48.838;9.142;2023-05-18T06:28:58;9.75;;;3.60;;
2544;SDS011;36212;48.838;9.142;2023-05-18T06:31:30;6.97;;;4.20;;
2544;SDS011;36212;48.838;9.142;2023-05-18T06:34:04;6.63;;;4.13;;
2544;SDS011;36212;48.838;9.142;2023-05-18T06:36:36;4.70;;;4.25;;
2544;SDS011;36212;48.838;9.142;2023-05-18T06:39:09;4.30;;;3.42;;
2544;SDS011;36212;48.838;9.142;2023-05-18T06:41:41;4.93;;;3.60;;
2544;SDS011;36212;48.838;9.142;2023-05-18T06:44:16;10.65;;;3.60;;
2544;SDS011;36212;48.838;9.142;2023-05-18T06:46:48;5.63;;;4.13;;
2544;SDS011;36212;48.838;9.142;2023-05-18T06:49:20;4.73;;;3.90;;
2544;SDS011;36212;48.838;9.142;2023-05-18T06:51:53;5.70;;;3.37;;
2544;SDS011;36212;48.838;9.142;2023-05-18T06:54:25;3.87;;;3.33;;
2544;SDS011;36212;48.838;9.142;2023-05-18T06:56:59;3.47;;;3.17;;
2544;SDS011;36212;48.838;9.142;2023-05-18T06:59:31;4.10;;;3.03;;
2544;SDS011;36212;48.838;9.142;2023-05-18T07:02:05;5.70;;;3.60;;
2544;SDS011;36212;48.838;9.142;2023-05-18T07:04:38;3.70;;;2.80;;
2544;SDS011;36212;48.838;9.142;2023-05-18T07:07:10;5.40;;;3.63;;
2544;SDS011;36212;48.838;9.142;2023-05-18T07:09:43;3.87;;;3.50;;
2544;SDS011;36212;48.838;9.142;2023-05-18T07:12:18;4.03;;;3.20;;
2544;SDS011;36212;48.838;9.142;2023-05-18T07:14:51;3.83;;;3.37;;
2544;SDS011;36212;48.838;9.142;2023-05-18T07:17:24;6.50;;;3.90;;
2544;SDS011;36212;48.838;9.142;2023-05-18T07:19:56;3.97;;;3.40;;
2544;SDS011;36212;48.838;9.142;2023-05-18T07:22:28;4.17;;;3.80;;
2544;SDS011;36212;48.838;9.142;2023-05-18T07:25:00;4.37;;;3.43;;
2544;SDS011;36212;48.838;9.142;2023-05-18T07:27:33;4.60;;;3.67;;
2544;SDS011;36212;48.838;9.142;2023-05-18T07:30:05;4.60;;;3.33;;
2544;SDS011;36212;48.838;9.142;2023-05-18T07:32:40;5.90;;;3.67;;
2544;SDS011;36212;48.838;9.142;2023-05-18T07:35:16;8.00;;;3.97;;
2544;SDS011;36212;48.838;9.142;2023-05-18T07:37:52;6.77;;;3.80;;
2544;SDS011;36212;48.838;9.142;2023-05-18T07:40:25;5.03;;;3.07;;
2544;SDS011;36212;48.838;9.142;2023-05-18T07:42:58;4.70;;;3.80;;
2544;SDS011;36212;48.838;9.142;2023-05-18T07:45:30;6.10;;;3.60;;
2544;SDS011;36212;48.838;9.142;2023-05-18T07:48:03;4.80;;;3.47;;
2544;SDS011;36212;48.838;9.142;2023-05-18T07:50:36;5.03;;;3.43;;
2544;SDS011;36212;48.838;9.142;2023-05-18T07:53:09;5.83;;;4.07;;
2544;SDS011;36212;48.838;9.142;2023-05-18T07:55:41;5.70;;;3.60;;
2544;SDS011;36212;48.838;9.142;2023-05-18T07:58:14;4.97;;;3.93;;
2544;SDS011;36212;48.838;9.142;2023-05-18T08:00:47;3.73;;;3.30;;
2544;SDS011;36212;48.838;9.142;2023-05-18T08:03:19;5.37;;;3.70;;
2544;SDS011;36212;48.838;9.142;2023-05-18T08:05:51;3.53;;;3.23;;
2544;SDS011;36212;48.838;9.142;2023-05-18T08:08:24;4.20;;;3.23;;
2544;SDS011;36212;48.838;9.142;2023-05-18T08:10:58;8.13;;;3.87;;
2544;SDS011;36212;48.838;9.142;2023-05-18T08:13:30;4.80;;;3.57;;
2544;SDS011;36212;48.838;9.142;2023-05-18T08:16:05;3.20;;;2.93;;
2544;SDS011;36212;48.838;9.142;2023-05-18T08:18:42;7.40;;;3.30;;
2544;SDS011;36212;48.838;9.142;2023-05-18T08:21:15;4.00;;;3.60;;
2544;SDS011;36212;48.838;9.142;2023-05-18T08:23:48;5.07;;;3.73;;
2544;SDS011;36212;48.838;9.142;2023-05-18T08:26:21;3.30;;;3.00;;
2544;SDS011;36212;48.838;9.142;2023-05-18T08:28:53;8.40;;;3.90;;
2544;SDS011;36212;48.838;9.142;2023-05-18T08:31:26;7.60;;;3.17;;
2544;SDS011;36212;48.838;9.142;2023-05-18T08:33:59;4.83;;;3.80;;
2544;SDS011;36212;48.838;9.142;2023-05-18T08:36:33;3.93;;;3.63;;
2544;SDS011;36212;48.838;9.142;2023-05-18T08:39:07;3.90;;;3.27;;
2544;SDS011;36212;48.838;9.142;2023-05-18T08:44:44;4.13;;;3.20;;
2544;SDS011;36212;48.838;9.142;2023-05-18T08:47:41;7.37;;;3.30;;
2544;SDS011;36212;48.838;9.142;2023-05-18T08:50:16;3.67;;;3.30;;
2544;SDS011;36212;48.838;9.142;2023-05-18T08:53:01;5.10;;;3.53;;
2544;SDS011;36212;48.838;9.142;2023-05-18T08:55:39;8.70;;;4.70;;
2544;SDS011;36212;48.838;9.142;2023-05-18T08:58:15;4.03;;;3.30;;
2544;SDS011;36212;48.838;9.142;2023-05-18T09:00:58;4.90;;;3.63;;
2544;SDS011;36212;48.838;9.142;2023-05-18T09:03:31;3.73;;;3.33;;
2544;SDS011;36212;48.838;9.142;2023-05-18T09:06:04;5.83;;;3.37;;
2544;SDS011;36212;48.838;9.142;2023-05-18T09:08:37;5.63;;;3.27;;
2544;SDS011;36212;48.838;9.142;2023-05-18T09:11:11;7.80;;;3.47;;
2544;SDS011;36212;48.838;9.142;2023-05-18T09:13:45;5.30;;;3.30;;
2544;SDS011;36212;48.838;9.142;2023-05-18T09:16:20;4.77;;;3.37;;
2544;SDS011;36212;48.838;9.142;2023-05-18T09:18:53;3.73;;;3.37;;
2544;SDS011;36212;48.838;9.142;2023-05-18T09:21:26;11.07;;;4.70;;
2544;SDS011;36212;48.838;9.142;2023-05-18T09:24:02;4.23;;;3.40;;
2544;SDS011;36212;48.838;9.142;2023-05-18T09:26:35;5.27;;;3.37;;
2544;SDS011;36212;48.838;9.142;2023-05-18T09:29:16;3.30;;;3.00;;
2544;SDS011;36212;48.838;9.142;2023-05-18T09:31:53;5.43;;;3.10;;
2544;SDS011;36212;48.838;9.142;2023-05-18T09:34:26;8.90;;;3.60;;
2544;SDS011;36212;48.838;9.142;2023-05-18T09:37:11;6.80;;;4.30;;
2544;SDS011;36212;48.838;9.142;2023-05-18T09:39:59;6.57;;;4.00;;
2544;SDS011;36212;48.838;9.142;2023-05-18T09:42:38;4.67;;;3.17;;
2544;SDS011;36212;48.838;9.142;2023-05-18T09:45:19;4.20;;;3.47;;
2544;SDS011;36212;48.838;9.142;2023-05-18T09:47:57;6.67;;;3.83;;
2544;SDS011;36212;48.838;9.142;2023-05-18T09:50:30;4.27;;;3.87;;
2544;SDS011;36212;48.838;9.142;2023-05-18T09:53:05;3.77;;;3.43;;
2544;SDS011;36212;48.838;9.142;2023-05-18T09:55:47;5.70;;;3.90;;
2544;SDS011;36212;48.838;9.142;2023-05-18T09:58:20;5.10;;;3.40;;
2544;SDS011;36212;48.838;9.142;2023-05-18T10:00:53;7.00;;;3.90;;
2544;SDS011;36212;48.838;9.142;2023-05-18T10:03:33;12.13;;;5.33;;
2544;SDS011;36212;48.838;9.142;2023-05-18T10:06:10;8.30;;;4.67;;
2544;SDS011;36212;48.838;9.142;2023-05-18T10:08:49;6.13;;;3.93;;
2544;SDS011;36212;48.838;9.142;2023-05-18T10:11:21;6.70;;;4.00;;
2544;SDS011;36212;48.838;9.142;2023-05-18T10:13:54;10.23;;;4.17;;
2544;SDS011;36212;48.838;9.142;2023-05-18T10:16:27;5.20;;;4.10;;
2544;SDS011;36212;48.838;9.142;2023-05-18T10:19:00;6.50;;;4.10;;
2544;SDS011;36212;48.838;9.142;2023-05-18T10:21:37;4.57;;;3.70;;
2544;SDS011;36212;48.838;9.142;2023-05-18T10:24:11;4.93;;;3.40;;
2544;SDS011;36212;48.838;9.142;2023-05-18T10:26:49;6.90;;;4.10;;
2544;SDS011;36212;48.838;9.142;2023-05-18T10:29:31;5.83;;;3.57;;
2544;SDS011;36212;48.838;9.142;2023-05-18T10:32:06;4.13;;;3.67;;
2544;SDS011;36212;48.838;9.142;2023-05-18T10:34:44;5.57;;;3.67;;
2544;SDS011;36212;48.838;9.142;2023-05-18T10:37:20;4.00;;;3.53;;
2544;SDS011;36212;48.838;9.142;2023-05-18T10:39:57;4.47;;;4.03;;
2544;SDS011;36212;48.838;9.142;2023-05-18T10:42:32;8.63;;;4.20;;
2544;SDS011;36212;48.838;9.142;2023-05-18T10:45:08;4.53;;;3.67;;
2544;SDS011;36212;48.838;9.142;2023-05-18T10:47:42;4.97;;;3.80;;
2544;SDS011;36212;48.838;9.142;2023-05-18T10:50:17;7.97;;;3.80;;
2544;SDS011;36212;48.838;9.142;2023-05-18T10:52:52;7.13;;;4.53;;
2544;SDS011;36212;48.838;9.142;2023-05-18T10:55:26;6.97;;;4.53;;
2544;SDS011;36212;48.838;9.142;2023-05-18T10:58:08;7.17;;;3.90;;
2544;SDS011;36212;48.838;9.142;2023-05-18T11:00:54;3.70;;;3.40;;
2544;SDS011;36212;48.838;9.142;2023-05-18T11:03:34;3.97;;;3.40;;
2544;SDS011;36212;48.838;9.142;2023-05-18T11:06:11;4.97;;;3.80;;
2544;SDS011;36212;48.838;9.142;2023-05-18T11:08:52;4.40;;;3.87;;
2544;SDS011;36212;48.838;9.142;2023-05-18T11:11:29;5.50;;;3.87;;
2544;SDS011;36212;48.838;9.142;2023-05-18T11:14:26;6.83;;;3.63;;
2544;SDS011;36212;48.838;9.142;2023-05-18T11:17:19;7.77;;;3.43;;
2544;SDS011;36212;48.838;9.142;2023-05-18T11:22:46;3.47;;;3.17;;
2544;SDS011;36212;48.838;9.142;2023-05-18T11:25:37;6.17;;;3.27;;
2544;SDS011;36212;48.838;9.142;2023-05-18T11:28:12;4.57;;;3.80;;
2544;SDS011;36212;48.838;9.142;2023-05-18T11:30:45;4.67;;;3.10;;
2544;SDS011;36212;48.838;9.142;2023-05-18T11:33:21;4.70;;;3.10;;
2544;SDS011;36212;48.838;9.142;2023-05-18T11:36:10;6.23;;;3.10;;
2544;SDS011;36212;48.838;9.142;2023-05-18T11:38:52;4.83;;;3.37;;
2544;SDS011;36212;48.838;9.142;2023-05-18T11:41:36;4.30;;;3.97;;
2544;SDS011;36212;48.838;9.142;2023-05-18T11:46:51;7.00;;;3.87;;
2544;SDS011;36212;48.838;9.142;2023-05-18T11:52:20;5.27;;;3.77;;
2544;SDS011;36212;48.838;9.142;2023-05-18T11:54:55;4.13;;;3.30;;
2544;SDS011;36212;48.838;9.142;2023-05-18T12:00:09;3.77;;;3.40;;
2544;SDS011;36212;48.838;9.142;2023-05-18T12:02:48;4.40;;;3.43;;
2544;SDS011;36212;48.838;9.142;2023-05-18T12:05:25;5.53;;;3.20;;
2544;SDS011;36212;48.838;9.142;2023-05-18T12:08:04;7.10;;;4.20;;
2544;SDS011;36212;48.838;9.142;2023-05-18T12:10:38;6.23;;;3.60;;
2544;SDS011;36212;48.838;9.142;2023-05-18T12:13:15;5.47;;;3.43;;
2544;SDS011;36212;48.838;9.142;2023-05-18T12:15:48;4.30;;;3.80;;
2544;SDS011;36212;48.838;9.142;2023-05-18T12:18:26;3.47;;;2.80;;
2544;SDS011;36212;48.838;9.142;2023-05-18T12:21:04;4.33;;;3.07;;
2544;SDS011;36212;48.838;9.142;2023-05-18T12:23:37;5.30;;;3.37;;
2544;SDS011;36212;48.838;9.142;2023-05-18T12:26:10;3.17;;;2.87;;
2544;SDS011;36212;48.838;9.142;2023-05-18T12:28:45;5.63;;;2.90;;
2544;SDS011;36212;48.838;9.142;2023-05-18T12:31:18;7.73;;;3.20;;
2544;SDS011;36212;48.838;9.142;2023-05-18T12:33:55;5.57;;;4.47;;
2544;SDS011;36212;48.838;9.142;2023-05-18T12:36:31;5.33;;;3.10;;
2544;SDS011;36212;48.838;9.142;2023-05-18T12:39:13;7.27;;;4.20;;
2544;SDS011;36212;48.838;9.142;2023-05-18T12:41:46;3.33;;;3.03;;
2544;SDS011;36212;48.838;9.142;2023-05-18T12:44:19;6.23;;;3.13;;
2544;SDS011;36212;48.838;9.142;2023-05-18T12:46:52;5.97;;;3.37;;
2544;SDS011;36212;48.838;9.142;2023-05-18T12:49:26;6.63;;;3.50;;
2544;SDS011;36212;48.838;9.142;2023-05-18T12:51:58;7.73;;;3.50;;
2544;SDS011;36212;48.838;9.142;2023-05-18T12:57:26;5.80;;;3.57;;
2544;SDS011;36212;48.838;9.142;2023-05-18T13:00:06;5.40;;;3.47;;
2544;SDS011;36212;48.838;9.142;2023-05-18T13:02:42;3.33;;;3.03;;
2544;SDS011;36212;48.838;9.142;2023-05-18T13:05:15;7.33;;;3.33;;
2544;SDS011;36212;48.838;9.142;2023-05-18T13:07:54;3.07;;;2.87;;
2544;SDS011;36212;48.838;9.142;2023-05-18T13:10:30;3.37;;;2.70;;
2544;SDS011;36212;48.838;9.142;2023-05-18T13:13:03;7.53;;;3.63;;
2544;SDS011;36212;48.838;9.142;2023-05-18T13:15:37;3.60;;;2.60;;
2544;SDS011;36212;48.838;9.142;2023-05-18T13:18:11;4.77;;;3.07;;
2544;SDS011;36212;48.838;9.142;2023-05-18T13:20:45;4.77;;;2.77;;
2544;SDS011;36212;48.838;9.142;2023-05-18T13:23:25;3.80;;;3.37;;
2544;SDS011;36212;48.838;9.142;2023-05-18T13:25:59;3.20;;;3.00;;
2544;SDS011;36212;48.838;9.142;2023-05-18T13:28:31;3.17;;;2.83;;
2544;SDS011;36212;48.838;9.142;2023-05-18T13:31:04;7.10;;;3.43;;
2544;SDS011;36212;48.838;9.142;2023-05-18T13:33:37;4.97;;;3.13;;
2544;SDS011;36212;48.838;9.142;2023-05-18T13:36:10;8.23;;;2.93;;
2544;SDS011;36212;48.838;9.142;2023-05-18T13:38:42;4.37;;;3.33;;
2544;SDS011;36212;48.838;9.142;2023-05-18T13:41:14;3.80;;;3.23;;
2544;SDS011;36212;48.838;9.142;2023-05-18T13:43:47;3.43;;;3.13;;
2544;SDS011;36212;48.838;9.142;2023-05-18T13:46:20;3.40;;;3.17;;
2544;SDS011;36212;48.838;9.142;2023-05-18T13:48:52;5.87;;;3.40;;
2544;SDS011;36212;48.838;9.142;2023-05-18T13:51:24;4.20;;;2.93;;
2544;SDS011;36212;48.838;9.142;2023-05-18T13:53:57;3.63;;;3.00;;
2544;SDS011;36212;48.838;9.142;2023-05-18T13:56:30;5.07;;;3.90;;
2544;SDS011;36212;48.838;9.142;2023-05-18T13:59:03;4.00;;;2.93;;
2544;SDS011;36212;48.838;9.142;2023-05-18T14:01:35;4.20;;;2.70;;
2544;SDS011;36212;48.838;9.142;2023-05-18T14:04:07;4.67;;;2.60;;
2544;SDS011;36212;48.838;9.142;2023-05-18T14:06:39;2.50;;;2.30;;
2544;SDS011;36212;48.838;9.142;2023-05-18T14:09:13;2.90;;;2.60;;
2544;SDS011;36212;48.838;9.142;2023-05-18T14:11:45;3.90;;;2.70;;
2544;SDS011;36212;48.838;9.142;2023-05-18T14:14:17;3.57;;;2.80;;
2544;SDS011;36212;48.838;9.142;2023-05-18T14:16:50;3.37;;;2.53;;
2544;SDS011;36212;48.838;9.142;2023-05-18T14:19:22;3.40;;;2.70;;
2544;SDS011;36212;48.838;9.142;2023-05-18T14:21:55;5.33;;;2.83;;
2544;SDS011;36212;48.838;9.142;2023-05-18T14:24:27;4.30;;;2.47;;
2544;SDS011;36212;48.838;9.142;2023-05-18T14:27:00;8.30;;;3.10;;
2544;SDS011;36212;48.838;9.142;2023-05-18T14:29:32;4.80;;;2.87;;
2544;SDS011;36212;48.838;9.142;2023-05-18T14:32:06;4.00;;;3.23;;
2544;SDS011;36212;48.838;9.142;2023-05-18T14:34:39;5.70;;;2.53;;
2544;SDS011;36212;48.838;9.142;2023-05-18T14:37:11;5.27;;;3.10;;
2544;SDS011;36212;48.838;9.142;2023-05-18T14:39:44;5.07;;;2.80;;
2544;SDS011;36212;48.838;9.142;2023-05-18T14:42:16;5.40;;;2.73;;
2544;SDS011;36212;48.838;9.142;2023-05-18T14:44:49;4.53;;;3.40;;
2544;SDS011;36212;48.838;9.142;2023-05-18T14:47:21;5.73;;;2.57;;
2544;SDS011;36212;48.838;9.142;2023-05-18T14:49:54;4.83;;;2.80;;
2544;SDS011;36212;48.838;9.142;2023-05-18T14:52:26;4.80;;;2.73;;
2544;SDS011;36212;48.838;9.142;2023-05-18T14:54:58;5.20;;;3.70;;
2544;SDS011;36212;48.838;9.142;2023-05-18T14:57:30;3.80;;;2.50;;
2544;SDS011;36212;48.838;9.142;2023-05-18T15:00:03;5.77;;;2.80;;
2544;SDS011;36212;48.838;9.142;2023-05-18T15:02:36;4.33;;;2.63;;
2544;SDS011;36212;48.838;9.142;2023-05-18T15:05:09;7.00;;;3.10;;
2544;SDS011;36212;48.838;9.142;2023-05-18T15:07:42;7.53;;;3.63;;
2544;SDS011;36212;48.838;9.142;2023-05-18T15:10:14;3.20;;;2.90;;
2544;SDS011;36212;48.838;9.142;2023-05-18T15:12:47;6.80;;;2.97;;
2544;SDS011;36212;48.838;9.142;2023-05-18T15:15:20;3.43;;;2.70;;
2544;SDS011;36212;48.838;9.142;2023-05-18T15:17:54;2.87;;;2.57;;
2544;SDS011;36212;48.838;9.142;2023-05-18T15:20:27;5.03;;;2.60;;
2544;SDS011;36212;48.838;9.142;2023-05-18T15:23:00;5.83;;;3.07;;
2544;SDS011;36212;48.838;9.142;2023-05-18T15:25:32;7.33;;;3.40;;
2544;SDS011;36212;48.838;9.142;2023-05-18T15:28:06;3.37;;;2.50;;
2544;SDS011;36212;48.838;9.142;2023-05-18T15:30:40;4.30;;;3.03;;
2544;SDS011;36212;48.838;9.142;2023-05-18T15:33:12;3.50;;;2.87;;
2544;SDS011;36212;48.838;9.142;2023-05-18T15:35:45;3.60;;;2.60;;
2544;SDS011;36212;48.838;9.142;2023-05-18T15:38:18;7.10;;;3.60;;
2544;SDS011;36212;48.838;9.142;2023-05-18T15:40:50;3.50;;;3.00;;
2544;SDS011;36212;48.838;9.142;2023-05-18T15:43:22;6.53;;;2.70;;
2544;SDS011;36212;48.838;9.142;2023-05-18T15:45:58;8.70;;;3.13;;
2544;SDS011;36212;48.838;9.142;2023-05-18T15:48:31;2.67;;;2.47;;
2544;SDS011;36212;48.838;9.142;2023-05-18T15:51:10;4.30;;;3.20;;
2544;SDS011;36212;48.838;9.142;2023-05-18T15:53:48;4.70;;;3.13;;
2544;SDS011;36212;48.838;9.142;2023-05-18T15:56:22;4.53;;;2.50;;
2544;SDS011;36212;48.838;9.142;2023-05-18T15:58:56;15.90;;;3.80;;
2544;SDS011;36212;48.838;9.142;2023-05-18T16:01:29;4.10;;;3.10;;
2544;SDS011;36212;48.838;9.142;2023-05-18T16:04:03;4.90;;;3.20;;
2544;SDS011;36212;48.838;9.142;2023-05-18T16:06:37;3.20;;;2.23;;
2544;SDS011;36212;48.838;9.142;2023-05-18T16:09:14;4.90;;;2.60;;